Fragaria, Washington
Current Conditions -  °F | °C
As of 3:55 AM on Saturday 22 Nov 2014 (Local Time) from KPWT Reporting Station
Clear Clear  
Wind Chill: 33°   Ceiling: Unl
Heat Index: 39°   Visibility: 10mi
Dew Point: 39°   Wind: 9mph
Humidity: 100%   Direction: 200°SSW
Pressure: 29.66"   Gusts: NA
Location:  47.4285°N, 122.573°W
Report Text: KPWT 221155Z AUTO 20008KT 10SM CLR 04/04 A2966 RMK AO1 70158 10070 20030 52034
Loading
Personal Weather Stations






























Interactive Weather Map New forecast layout! Learn more

10-Day Weather Forecast

Advertisements
Track Severe Weather on mobile